HLE07 EGSR-EGSR
Flight info
| Callsign | HLE07 |
|---|---|
| Flight time | 0h 4m |
| Altitude | 1500 |
| Route | VFR HEMS |
| Aircraft | A169/L-V/N |
Departure
| Time | 2026-04-10 15:40 |
|---|---|
| Airport | Earls Colne Airfield (EGSR) |
Arrival
| Time | 2026-04-10 15:45 |
|---|---|
| Airport | Earls Colne Airfield (EGSR) |
| Time | Latitude | Longitude | Altitude | Speed | Heading |
|---|---|---|---|---|---|
| 2026-04-10 15:35 | 51.91187 | 0.67675 | 230 ft | 0 kts | 210° |
| 2026-04-10 15:39 | 51.91188 | 0.67666 | 232 ft | 2 kts | 275° |
| 2026-04-10 15:39 | 51.91223 | 0.67697 | 233 ft | 11 kts | 62° |
| 2026-04-10 15:39 | 51.91282 | 0.67861 | 248 ft | 21 kts | 50° |
| 2026-04-10 15:39 | 51.91363 | 0.68069 | 296 ft | 7 kts | 244° |
| 2026-04-10 15:40 | 51.91238 | 0.67705 | 438 ft | 76 kts | 239° |
| 2026-04-10 15:40 | 51.90677 | 0.67277 | 696 ft | 116 kts | 168° |
| 2026-04-10 15:40 | 51.89964 | 0.68096 | 964 ft | 137 kts | 133° |
| 2026-04-10 15:40 | 51.89567 | 0.69425 | 1020 ft | 129 kts | 114° |
| 2026-04-10 15:41 | 51.89204 | 0.70772 | 954 ft | 130 kts | 115° |
| 2026-04-10 15:41 | 51.88839 | 0.72143 | 970 ft | 131 kts | 114° |
| 2026-04-10 15:41 | 51.88475 | 0.73480 | 984 ft | 130 kts | 114° |
| 2026-04-10 15:41 | 51.88102 | 0.74847 | 985 ft | 131 kts | 114° |
| 2026-04-10 15:42 | 51.87740 | 0.76176 | 983 ft | 132 kts | 114° |
| 2026-04-10 15:42 | 51.87369 | 0.77531 | 991 ft | 131 kts | 114° |
| 2026-04-10 15:42 | 51.86991 | 0.78885 | 993 ft | 131 kts | 114° |
| 2026-04-10 15:42 | 51.86614 | 0.80209 | 1000 ft | 130 kts | 114° |
| 2026-04-10 15:43 | 51.86254 | 0.81486 | 979 ft | 119 kts | 111° |
| 2026-04-10 15:43 | 51.85951 | 0.82652 | 878 ft | 109 kts | 109° |
| 2026-04-10 15:43 | 51.85941 | 0.83667 | 936 ft | 78 kts | 45° |
| 2026-04-10 15:43 | 51.86393 | 0.83551 | 699 ft | 79 kts | 294° |
| 2026-04-10 15:44 | 51.86258 | 0.82840 | 530 ft | 72 kts | 200° |
| 2026-04-10 15:44 | 51.85852 | 0.83027 | 480 ft | 60 kts | 123° |
| 2026-04-10 15:44 | 51.85933 | 0.83675 | 390 ft | 71 kts | 52° |
| 2026-04-10 15:44 | 51.86348 | 0.83566 | 444 ft | 68 kts | 306° |
| 2026-04-10 15:45 | 51.86315 | 0.82827 | 357 ft | 67 kts | 217° |
| 2026-04-10 15:45 | 51.86016 | 0.82900 | 310 ft | 33 kts | 83° |
| 2026-04-10 15:45 | 51.86052 | 0.83254 | 141 ft | 27 kts | 84° |
| 2026-04-10 15:45 | 51.86087 | 0.83486 | 113 ft | 14 kts | 127° |
| 2026-04-10 15:46 | 51.86086 | 0.83551 | 106 ft | 6 kts | 227° |
| 2026-04-10 15:46 | 51.86067 | 0.83537 | 98 ft | 3 kts | 280° |
| 2026-04-10 15:46 | 51.86063 | 0.83524 | 85 ft | 0 kts | 279° |
| 2026-04-10 15:46 | 51.86064 | 0.83524 | 85 ft | 0 kts | 280° |
| 2026-04-10 16:11 | 51.86066 | 0.83516 | 93 ft | 2 kts | 12° |
| 2026-04-10 16:11 | 51.86084 | 0.83552 | 96 ft | 3 kts | 86° |
| 2026-04-10 16:11 | 51.86086 | 0.83506 | 197 ft | 11 kts | 89° |
| 2026-04-10 16:11 | 51.86083 | 0.83609 | 406 ft | 53 kts | 86° |
| 2026-04-10 16:12 | 51.86440 | 0.84198 | 884 ft | 109 kts | 2° |
| 2026-04-10 16:12 | 51.87230 | 0.83779 | 917 ft | 136 kts | 322° |
| 2026-04-10 16:12 | 51.87785 | 0.82564 | 1091 ft | 131 kts | 291° |
| 2026-04-10 16:13 | 51.88637 | 0.79982 | 967 ft | 131 kts | 287° |
| 2026-04-10 16:13 | 51.89009 | 0.78560 | 941 ft | 141 kts | 288° |
| 2026-04-10 16:13 | 51.89391 | 0.77097 | 1010 ft | 142 kts | 288° |
| 2026-04-10 16:13 | 51.89781 | 0.75630 | 1037 ft | 141 kts | 288° |
| 2026-04-10 16:14 | 51.90173 | 0.74166 | 1033 ft | 141 kts | 288° |
| 2026-04-10 16:14 | 51.90574 | 0.72701 | 1007 ft | 142 kts | 288° |
| 2026-04-10 16:14 | 51.90941 | 0.71258 | 873 ft | 130 kts | 280° |
| 2026-04-10 16:14 | 51.91257 | 0.70013 | 597 ft | 111 kts | 298° |
| 2026-04-10 16:15 | 51.91626 | 0.69077 | 372 ft | 82 kts | 268° |
| 2026-04-10 16:15 | 51.91490 | 0.68431 | 266 ft | 49 kts | 237° |
| 2026-04-10 16:15 | 51.91351 | 0.68043 | 252 ft | 31 kts | 242° |
| 2026-04-10 16:15 | 51.91267 | 0.67814 | 237 ft | 15 kts | 237° |
| 2026-04-10 16:16 | 51.91226 | 0.67727 | 238 ft | 6 kts | 223° |
| 2026-04-10 16:16 | 51.91198 | 0.67686 | 236 ft | 3 kts | 214° |
| 2026-04-10 16:16 | 51.91189 | 0.67676 | 230 ft | 0 kts | 216° |
| 2026-04-10 16:16 | 51.91188 | 0.67676 | 230 ft | 0 kts | 214° |
| 2026-04-10 16:32 | 51.91206 | 0.67666 | 240 ft | 6 kts | 346° |
| 2026-04-10 16:33 | 51.91239 | 0.67723 | 236 ft | 8 kts | 62° |
| 2026-04-10 16:33 | 51.91271 | 0.67829 | 259 ft | 14 kts | 60° |
| 2026-04-10 16:33 | 51.91338 | 0.68042 | 311 ft | 25 kts | 7° |
| 2026-04-10 16:33 | 51.91353 | 0.68039 | 339 ft | 29 kts | 249° |
| 2026-04-10 16:34 | 51.91140 | 0.67452 | 544 ft | 89 kts | 239° |
| 2026-04-10 16:34 | 51.90673 | 0.66707 | 895 ft | 98 kts | 206° |
| 2026-04-10 16:34 | 51.89990 | 0.66678 | 914 ft | 112 kts | 160° |
| 2026-04-10 16:34 | 51.89364 | 0.67631 | 884 ft | 137 kts | 129° |
| 2026-04-10 16:35 | 51.88761 | 0.68874 | 998 ft | 140 kts | 129° |
| 2026-04-10 16:35 | 51.88157 | 0.70118 | 1025 ft | 141 kts | 127° |
| 2026-04-10 16:35 | 51.87557 | 0.71380 | 1016 ft | 142 kts | 128° |
| 2026-04-10 16:35 | 51.86959 | 0.72641 | 1020 ft | 141 kts | 126° |
| 2026-04-10 16:36 | 51.86364 | 0.73913 | 1009 ft | 142 kts | 126° |
| 2026-04-10 16:36 | 51.85767 | 0.75194 | 1000 ft | 141 kts | 126° |
| 2026-04-10 16:36 | 51.85173 | 0.76471 | 1002 ft | 142 kts | 126° |
| 2026-04-10 16:36 | 51.84580 | 0.77746 | 996 ft | 142 kts | 126° |
| 2026-04-10 16:37 | 51.83984 | 0.79026 | 1000 ft | 142 kts | 126° |
| 2026-04-10 16:37 | 51.83398 | 0.80288 | 993 ft | 142 kts | 126° |
| 2026-04-10 16:37 | 51.82800 | 0.81567 | 1009 ft | 141 kts | 126° |
| 2026-04-10 16:37 | 51.82211 | 0.82817 | 995 ft | 141 kts | 126° |
| 2026-04-10 16:38 | 51.81621 | 0.84088 | 995 ft | 141 kts | 126° |
| 2026-04-10 16:38 | 51.81065 | 0.85303 | 1001 ft | 141 kts | 126° |
| 2026-04-10 16:38 | 51.80481 | 0.86581 | 1000 ft | 141 kts | 126° |
| 2026-04-10 16:38 | 51.79906 | 0.87848 | 996 ft | 141 kts | 124° |
| 2026-04-10 16:39 | 51.79322 | 0.89106 | 944 ft | 138 kts | 130° |
| 2026-04-10 16:39 | 51.78637 | 0.90096 | 874 ft | 121 kts | 138° |
| 2026-04-10 16:39 | 51.77986 | 0.90892 | 721 ft | 116 kts | 137° |
| 2026-04-10 16:39 | 51.77384 | 0.91760 | 572 ft | 115 kts | 126° |
| 2026-04-10 16:40 | 51.77126 | 0.92904 | 485 ft | 102 kts | 78° |
| 2026-04-10 16:40 | 51.77577 | 0.93104 | 401 ft | 84 kts | 308° |
| 2026-04-10 16:40 | 51.77606 | 0.92300 | 277 ft | 65 kts | 211° |
| 2026-04-10 16:40 | 51.77389 | 0.92326 | 232 ft | 36 kts | 101° |
| 2026-04-10 16:41 | 51.77390 | 0.92613 | 179 ft | 21 kts | 92° |
| 2026-04-10 16:41 | 51.77400 | 0.92800 | 53 ft | 13 kts | 85° |
| 2026-04-10 16:41 | 51.77409 | 0.92853 | 20 ft | 3 kts | 79° |
| 2026-04-10 16:41 | 51.77409 | 0.92858 | 18 ft | 0 kts | 78° |
| 2026-04-10 17:12 | 51.77407 | 0.92862 | 24 ft | 2 kts | 86° |
| 2026-04-10 17:13 | 51.77403 | 0.92829 | 112 ft | 8 kts | 86° |
| 2026-04-10 17:13 | 51.77429 | 0.92992 | 274 ft | 45 kts | 69° |
| 2026-04-10 17:13 | 51.77862 | 0.93097 | 541 ft | 94 kts | 332° |
| 2026-04-10 17:13 | 51.78509 | 0.92418 | 682 ft | 123 kts | 327° |
| 2026-04-10 17:14 | 51.79390 | 0.92032 | 874 ft | 141 kts | 358° |
| 2026-04-10 17:14 | 51.80374 | 0.91892 | 1055 ft | 143 kts | 356° |
| 2026-04-10 17:14 | 51.81381 | 0.91817 | 1044 ft | 144 kts | 355° |
| 2026-04-10 17:14 | 51.82393 | 0.91692 | 1002 ft | 146 kts | 353° |
| 2026-04-10 17:15 | 51.83399 | 0.91531 | 1006 ft | 145 kts | 352° |
| 2026-04-10 17:15 | 51.84414 | 0.91346 | 987 ft | 145 kts | 352° |
| 2026-04-10 17:15 | 51.85405 | 0.91169 | 988 ft | 144 kts | 353° |
| 2026-04-10 17:15 | 51.86418 | 0.91071 | 975 ft | 145 kts | 355° |
| 2026-04-10 17:16 | 51.87420 | 0.90995 | 986 ft | 144 kts | 356° |
| 2026-04-10 17:16 | 51.88417 | 0.90924 | 978 ft | 144 kts | 356° |
| 2026-04-10 17:16 | 51.89422 | 0.90828 | 929 ft | 145 kts | 354° |
| 2026-04-10 17:16 | 51.90422 | 0.90710 | 801 ft | 143 kts | 355° |
| 2026-04-10 17:17 | 51.91307 | 0.90890 | 579 ft | 113 kts | 6° |
| 2026-04-10 17:17 | 51.91774 | 0.90569 | 570 ft | 54 kts | 259° |
| 2026-04-10 17:17 | 51.91556 | 0.90200 | 389 ft | 53 kts | 188° |
| 2026-04-10 17:17 | 51.91278 | 0.90053 | 301 ft | 29 kts | 178° |
| 2026-04-10 17:18 | 51.91157 | 0.89997 | 204 ft | 17 kts | 196° |
| 2026-04-10 17:18 | 51.91101 | 0.89974 | 170 ft | 2 kts | 199° |
| 2026-04-10 17:18 | 51.91095 | 0.89973 | 163 ft | 0 kts | 193° |
| 2026-04-10 17:52 | 51.91095 | 0.89968 | 184 ft | 0 kts | 157° |
| 2026-04-10 17:53 | 51.91127 | 0.89949 | 316 ft | 6 kts | 158° |
| 2026-04-10 17:53 | 51.90868 | 0.90156 | 444 ft | 74 kts | 160° |
| 2026-04-10 17:53 | 51.90301 | 0.90171 | 791 ft | 93 kts | 193° |
| 2026-04-10 17:53 | 51.89803 | 0.89477 | 780 ft | 103 kts | 225° |
| 2026-04-10 17:54 | 51.89647 | 0.88152 | 729 ft | 136 kts | 271° |
| 2026-04-10 17:54 | 51.89821 | 0.86638 | 805 ft | 139 kts | 274° |
| 2026-04-10 17:54 | 51.90009 | 0.85091 | 807 ft | 141 kts | 274° |
| 2026-04-10 17:54 | 51.90180 | 0.83514 | 788 ft | 140 kts | 271° |
| 2026-04-10 17:55 | 51.90318 | 0.81967 | 765 ft | 140 kts | 271° |
| 2026-04-10 17:55 | 51.90460 | 0.80402 | 752 ft | 141 kts | 271° |
| 2026-04-10 17:55 | 51.90606 | 0.78834 | 758 ft | 139 kts | 271° |
| 2026-04-10 17:55 | 51.90748 | 0.77272 | 743 ft | 141 kts | 271° |
| 2026-04-10 17:56 | 51.90873 | 0.75694 | 749 ft | 141 kts | 270° |
| 2026-04-10 17:56 | 51.90997 | 0.74121 | 767 ft | 140 kts | 270° |
| 2026-04-10 17:56 | 51.91123 | 0.72567 | 762 ft | 140 kts | 270° |
| 2026-04-10 17:56 | 51.91255 | 0.71033 | 697 ft | 132 kts | 268° |
| 2026-04-10 17:57 | 51.91431 | 0.69702 | 482 ft | 108 kts | 282° |
| 2026-04-10 17:57 | 51.91598 | 0.68731 | 332 ft | 71 kts | 234° |
| 2026-04-10 17:57 | 51.91386 | 0.68143 | 277 ft | 44 kts | 234° |
| 2026-04-10 17:57 | 51.91278 | 0.67848 | 247 ft | 20 kts | 236° |
| 2026-04-10 17:58 | 51.91228 | 0.67734 | 237 ft | 6 kts | 224° |
| 2026-04-10 17:58 | 51.91201 | 0.67691 | 237 ft | 4 kts | 217° |
| 2026-04-10 17:58 | 51.91188 | 0.67675 | 231 ft | 0 kts | 214° |
| 2026-04-10 18:23 | 51.91187 | 0.67675 | 231 ft | 0 kts | 209° |
| 2026-04-10 18:25 | 51.91198 | 0.67660 | 244 ft | 6 kts | 330° |
| 2026-04-10 18:26 | 51.91244 | 0.67733 | 242 ft | 12 kts | 63° |
| 2026-04-10 18:26 | 51.91303 | 0.67908 | 274 ft | 25 kts | 51° |
| 2026-04-10 18:26 | 51.91367 | 0.68084 | 331 ft | 16 kts | 237° |
| 2026-04-10 18:26 | 51.91156 | 0.67461 | 469 ft | 96 kts | 239° |
| 2026-04-10 18:27 | 51.90756 | 0.66412 | 682 ft | 121 kts | 227° |
| 2026-04-10 18:27 | 51.90043 | 0.65593 | 1025 ft | 125 kts | 210° |
| 2026-04-10 18:27 | 51.89354 | 0.64711 | 1026 ft | 126 kts | 211° |
| 2026-04-10 18:27 | 51.88603 | 0.63792 | 934 ft | 141 kts | 210° |
| 2026-04-10 18:28 | 51.87779 | 0.62887 | 1013 ft | 142 kts | 208° |
| 2026-04-10 18:28 | 51.86962 | 0.61994 | 1029 ft | 142 kts | 208° |
| 2026-04-10 18:28 | 51.86150 | 0.61098 | 1037 ft | 141 kts | 208° |
| 2026-04-10 18:28 | 51.85336 | 0.60193 | 1011 ft | 141 kts | 208° |
| 2026-04-10 18:29 | 51.84526 | 0.59294 | 999 ft | 141 kts | 208° |
| 2026-04-10 18:29 | 51.83713 | 0.58396 | 992 ft | 141 kts | 208° |
| 2026-04-10 18:29 | 51.82899 | 0.57489 | 983 ft | 142 kts | 208° |
| 2026-04-10 18:29 | 51.82083 | 0.56590 | 992 ft | 142 kts | 208° |
| 2026-04-10 18:30 | 51.81275 | 0.55688 | 1007 ft | 141 kts | 208° |
| 2026-04-10 18:30 | 51.80459 | 0.54821 | 997 ft | 142 kts | 204° |
| 2026-04-10 18:30 | 51.79606 | 0.54014 | 1007 ft | 141 kts | 204° |
| 2026-04-10 18:30 | 51.78755 | 0.53213 | 1001 ft | 142 kts | 204° |
| 2026-04-10 18:31 | 51.77919 | 0.52428 | 1010 ft | 141 kts | 204° |
| 2026-04-10 18:31 | 51.77071 | 0.51631 | 1001 ft | 141 kts | 205° |
| 2026-04-10 18:31 | 51.76211 | 0.50829 | 996 ft | 142 kts | 204° |
| 2026-04-10 18:31 | 51.75361 | 0.50039 | 1008 ft | 141 kts | 204° |
| 2026-04-10 18:32 | 51.74515 | 0.49247 | 1003 ft | 141 kts | 204° |
| 2026-04-10 18:32 | 51.73657 | 0.48451 | 1008 ft | 141 kts | 204° |
| 2026-04-10 18:32 | 51.72805 | 0.47658 | 1004 ft | 141 kts | 204° |
| 2026-04-10 18:32 | 51.71953 | 0.46858 | 1016 ft | 141 kts | 204° |
| 2026-04-10 18:33 | 51.71117 | 0.46072 | 1015 ft | 141 kts | 204° |
| 2026-04-10 18:33 | 51.70262 | 0.45272 | 1008 ft | 141 kts | 204° |
| 2026-04-10 18:33 | 51.69411 | 0.44474 | 1019 ft | 141 kts | 204° |
| 2026-04-10 18:33 | 51.68568 | 0.43679 | 1015 ft | 141 kts | 204° |
| 2026-04-10 18:34 | 51.67723 | 0.42884 | 1004 ft | 141 kts | 204° |
| 2026-04-10 18:34 | 51.66867 | 0.42083 | 993 ft | 141 kts | 204° |
| 2026-04-10 18:34 | 51.66024 | 0.41294 | 1008 ft | 141 kts | 204° |
| 2026-04-10 18:34 | 51.65169 | 0.40492 | 1018 ft | 140 kts | 204° |
| 2026-04-10 18:35 | 51.64332 | 0.39703 | 1005 ft | 141 kts | 204° |
| 2026-04-10 18:35 | 51.63477 | 0.38906 | 1009 ft | 141 kts | 204° |
| 2026-04-10 18:35 | 51.62628 | 0.38114 | 1014 ft | 141 kts | 204° |
| 2026-04-10 18:35 | 51.61779 | 0.37335 | 1018 ft | 141 kts | 204° |
| 2026-04-10 18:36 | 51.60933 | 0.36559 | 1008 ft | 141 kts | 204° |
| 2026-04-10 18:36 | 51.60083 | 0.35776 | 992 ft | 142 kts | 205° |
| 2026-04-10 18:36 | 51.59226 | 0.34991 | 1003 ft | 142 kts | 204° |
| 2026-04-10 18:36 | 51.58361 | 0.34212 | 1013 ft | 141 kts | 203° |
| 2026-04-10 18:37 | 51.57494 | 0.33423 | 991 ft | 143 kts | 204° |
| 2026-04-10 18:37 | 51.56636 | 0.32657 | 1006 ft | 141 kts | 203° |
| 2026-04-10 18:37 | 51.55781 | 0.31875 | 1016 ft | 140 kts | 204° |
| 2026-04-10 18:37 | 51.54926 | 0.31103 | 987 ft | 142 kts | 205° |
| 2026-04-10 18:38 | 51.54065 | 0.30351 | 1005 ft | 141 kts | 204° |
| 2026-04-10 18:38 | 51.53198 | 0.29582 | 992 ft | 143 kts | 204° |
| 2026-04-10 18:38 | 51.52324 | 0.28770 | 977 ft | 142 kts | 206° |
| 2026-04-10 18:38 | 51.51551 | 0.27838 | 969 ft | 135 kts | 211° |
| 2026-04-10 18:39 | 51.50838 | 0.26959 | 970 ft | 125 kts | 207° |
| 2026-04-10 18:39 | 51.50149 | 0.26070 | 817 ft | 125 kts | 207° |
| 2026-04-10 18:39 | 51.49438 | 0.25973 | 846 ft | 97 kts | 132° |
| 2026-04-10 18:39 | 51.49553 | 0.26933 | 659 ft | 100 kts | 25° |
| 2026-04-10 18:40 | 51.50066 | 0.26518 | 638 ft | 85 kts | 274° |
| 2026-04-10 18:40 | 51.49792 | 0.25907 | 510 ft | 77 kts | 184° |
| 2026-04-10 18:40 | 51.49410 | 0.26399 | 594 ft | 83 kts | 92° |
| 2026-04-10 18:40 | 51.49919 | 0.26820 | 720 ft | 99 kts | 341° |
| 2026-04-10 18:41 | 51.49949 | 0.25956 | 753 ft | 96 kts | 221° |
| 2026-04-10 18:41 | 51.49583 | 0.25824 | 696 ft | 100 kts | 164° |
| 2026-04-10 18:41 | 51.49437 | 0.26806 | 699 ft | 112 kts | 49° |
| 2026-04-10 18:41 | 51.49946 | 0.26274 | 556 ft | 117 kts | 271° |
| 2026-04-10 18:42 | 51.50400 | 0.25566 | 720 ft | 81 kts | 52° |
| 2026-04-10 18:42 | 51.50586 | 0.26078 | 489 ft | 63 kts | 123° |
| 2026-04-10 18:42 | 51.50270 | 0.26534 | 306 ft | 59 kts | 169° |
| 2026-04-10 18:42 | 51.49900 | 0.26588 | 191 ft | 44 kts | 162° |
| 2026-04-10 18:43 | 51.49689 | 0.26625 | 109 ft | 14 kts | 156° |
| 2026-04-10 18:43 | 51.49609 | 0.26635 | 90 ft | 6 kts | 92° |
| 2026-04-10 18:43 | 51.49621 | 0.26677 | 36 ft | 3 kts | 87° |
| 2026-04-10 18:43 | 51.49621 | 0.26680 | 33 ft | 0 kts | 83° |
| 2026-04-10 19:05 | 51.49620 | 0.26679 | 42 ft | 3 kts | 125° |
| 2026-04-10 19:05 | 51.49622 | 0.26659 | 122 ft | 12 kts | 157° |
| 2026-04-10 19:06 | 51.49686 | 0.26638 | 383 ft | 9 kts | 167° |
| 2026-04-10 19:06 | 51.49438 | 0.26942 | 480 ft | 89 kts | 117° |
| 2026-04-10 19:06 | 51.49666 | 0.28097 | 655 ft | 125 kts | 65° |
| 2026-04-10 19:06 | 51.50108 | 0.29225 | 861 ft | 122 kts | 63° |
| 2026-04-10 19:07 | 51.50561 | 0.30480 | 849 ft | 133 kts | 63° |
| 2026-04-10 19:07 | 51.51014 | 0.31789 | 899 ft | 134 kts | 64° |
| 2026-04-10 19:07 | 51.51461 | 0.33099 | 907 ft | 135 kts | 65° |
| 2026-04-10 19:07 | 51.51904 | 0.34447 | 912 ft | 135 kts | 65° |
| 2026-04-10 19:08 | 51.52337 | 0.35773 | 906 ft | 135 kts | 65° |
| 2026-04-10 19:08 | 51.52772 | 0.37104 | 898 ft | 136 kts | 65° |
| 2026-04-10 19:08 | 51.53213 | 0.38450 | 899 ft | 135 kts | 65° |
| 2026-04-10 19:08 | 51.53653 | 0.39781 | 897 ft | 135 kts | 65° |
| 2026-04-10 19:09 | 51.54098 | 0.41128 | 894 ft | 136 kts | 65° |
| 2026-04-10 19:09 | 51.54544 | 0.42472 | 910 ft | 136 kts | 65° |
| 2026-04-10 19:09 | 51.54982 | 0.43809 | 822 ft | 134 kts | 66° |
| 2026-04-10 19:09 | 51.55286 | 0.45204 | 695 ft | 130 kts | 76° |
| 2026-04-10 19:10 | 51.55669 | 0.46316 | 946 ft | 102 kts | 2° |
| 2026-04-10 19:10 | 51.55751 | 0.45514 | 851 ft | 91 kts | 199° |
| 2026-04-10 19:10 | 51.55457 | 0.46107 | 853 ft | 101 kts | 71° |
| 2026-04-10 19:10 | 51.56050 | 0.46085 | 707 ft | 71 kts | 284° |
| 2026-04-10 19:11 | 51.55918 | 0.45731 | 344 ft | 30 kts | 149° |
| 2026-04-10 19:11 | 51.55833 | 0.45823 | 241 ft | 23 kts | 138° |
| 2026-04-10 19:11 | 51.55737 | 0.46019 | 202 ft | 26 kts | 140° |
| 2026-04-10 19:11 | 51.55693 | 0.46104 | 172 ft | 5 kts | 146° |
| 2026-04-10 19:12 | 51.55690 | 0.46100 | 155 ft | 0 kts | 136° |
| 2026-04-10 19:24 | 51.55694 | 0.46100 | 166 ft | 1 kts | 117° |
| 2026-04-10 19:25 | 51.55722 | 0.46022 | 273 ft | 6 kts | 112° |
| 2026-04-10 19:25 | 51.55671 | 0.46261 | 464 ft | 49 kts | 96° |
| 2026-04-10 19:25 | 51.56046 | 0.46812 | 710 ft | 104 kts | 37° |
| 2026-04-10 19:25 | 51.56798 | 0.47105 | 978 ft | 112 kts | 15° |
| 2026-04-10 19:26 | 51.57545 | 0.47482 | 956 ft | 111 kts | 18° |
| 2026-04-10 19:26 | 51.58282 | 0.47857 | 922 ft | 112 kts | 18° |
| 2026-04-10 19:26 | 51.59021 | 0.48231 | 908 ft | 112 kts | 18° |
| 2026-04-10 19:26 | 51.59758 | 0.48638 | 909 ft | 111 kts | 21° |
| 2026-04-10 19:27 | 51.60556 | 0.49091 | 758 ft | 145 kts | 26° |
| 2026-04-10 19:27 | 51.61575 | 0.49580 | 885 ft | 157 kts | 22° |
| 2026-04-10 19:27 | 51.62609 | 0.50172 | 888 ft | 160 kts | 22° |
| 2026-04-10 19:27 | 51.63658 | 0.50783 | 912 ft | 161 kts | 22° |
| 2026-04-10 19:28 | 51.64717 | 0.51396 | 923 ft | 161 kts | 22° |
| 2026-04-10 19:28 | 51.65775 | 0.52016 | 914 ft | 161 kts | 22° |
| 2026-04-10 19:28 | 51.66826 | 0.52626 | 913 ft | 161 kts | 22° |
| 2026-04-10 19:28 | 51.67887 | 0.53242 | 916 ft | 161 kts | 21° |
| 2026-04-10 19:29 | 51.68939 | 0.53855 | 919 ft | 160 kts | 22° |
| 2026-04-10 19:29 | 51.69926 | 0.54431 | 911 ft | 160 kts | 22° |
| 2026-04-10 19:29 | 51.70908 | 0.55007 | 913 ft | 160 kts | 22° |
| 2026-04-10 19:29 | 51.71956 | 0.55626 | 909 ft | 161 kts | 22° |
| 2026-04-10 19:30 | 51.73008 | 0.56243 | 910 ft | 161 kts | 22° |
| 2026-04-10 19:30 | 51.74004 | 0.56830 | 904 ft | 161 kts | 22° |
| 2026-04-10 19:30 | 51.74939 | 0.57380 | 901 ft | 161 kts | 22° |
| 2026-04-10 19:30 | 51.75994 | 0.58004 | 922 ft | 161 kts | 21° |
| 2026-04-10 19:31 | 51.76964 | 0.58582 | 921 ft | 160 kts | 22° |
| 2026-04-10 19:31 | 51.77920 | 0.59219 | 919 ft | 160 kts | 25° |
| 2026-04-10 19:31 | 51.78944 | 0.59928 | 909 ft | 160 kts | 26° |
| 2026-04-10 19:31 | 51.79961 | 0.60646 | 921 ft | 160 kts | 26° |
| 2026-04-10 19:32 | 51.80969 | 0.61361 | 935 ft | 159 kts | 26° |
| 2026-04-10 19:32 | 51.81987 | 0.62086 | 923 ft | 159 kts | 26° |
| 2026-04-10 19:32 | 51.83004 | 0.62808 | 931 ft | 159 kts | 26° |
| 2026-04-10 19:32 | 51.84020 | 0.63529 | 915 ft | 160 kts | 26° |
| 2026-04-10 19:33 | 51.85036 | 0.64246 | 918 ft | 160 kts | 26° |
| 2026-04-10 19:33 | 51.86057 | 0.64980 | 926 ft | 160 kts | 26° |
| 2026-04-10 19:33 | 51.87075 | 0.65707 | 926 ft | 160 kts | 26° |
| 2026-04-10 19:33 | 51.88084 | 0.66443 | 936 ft | 159 kts | 26° |
| 2026-04-10 19:34 | 51.89097 | 0.67183 | 924 ft | 159 kts | 27° |
| 2026-04-10 19:34 | 51.89997 | 0.68054 | 982 ft | 141 kts | 43° |
| 2026-04-10 19:34 | 51.90663 | 0.69100 | 860 ft | 127 kts | 45° |
| 2026-04-10 19:34 | 51.91243 | 0.70052 | 722 ft | 113 kts | 46° |
| 2026-04-10 19:35 | 51.91846 | 0.70191 | 610 ft | 88 kts | 302° |
| 2026-04-10 19:35 | 51.91835 | 0.69415 | 424 ft | 67 kts | 237° |
| 2026-04-10 19:35 | 51.91602 | 0.68762 | 321 ft | 66 kts | 239° |
| 2026-04-10 19:35 | 51.91405 | 0.68199 | 273 ft | 49 kts | 239° |
| 2026-04-10 19:36 | 51.91273 | 0.67827 | 249 ft | 29 kts | 229° |
| 2026-04-10 19:36 | 51.91193 | 0.67682 | 235 ft | 4 kts | 232° |
| 2026-04-10 19:36 | 51.91188 | 0.67675 | 231 ft | 0 kts | 220° |